Time;durP1;ratioP1;P1;durP2;ratioP2;P2;SDS_P1;SDS_P2;PMS_P1;PMS_P2;Temp;Humidity;BMP_temperature;BMP_pressure;BME280_temperature;BME280_humidity;BME280_pressure;Samples;Min_cycle;Max_cycle;Signal;HPM_P1;HPM_P2
2022/11/25 00:01:12;;;;;;;;;2.50;2.50;;;;;20.03;43.12;100527.09;5057200;28;45380;-47
2022/11/25 00:03:38;;;;;;;;;3.50;2.50;;;;;20.08;42.92;100548.72;5057325;28;45355;-43
2022/11/25 00:06:07;;;;;;;;;2.25;2.25;;;;;20.08;42.62;100544.31;5056742;28;47336;-45
2022/11/25 00:08:33;;;;;;;;;0.00;0.00;;;;;20.07;42.71;100547.88;5056919;28;45358;-43
2022/11/25 00:11:00;;;;;;;;;4.33;2.00;;;;;20.07;42.50;100547.00;5056345;28;51551;-43
2022/11/25 00:13:25;;;;;;;;;3.25;2.00;;;;;20.08;42.89;100535.56;5057126;28;45373;-46
2022/11/25 00:15:50;;;;;;;;;2.75;2.75;;;;;20.08;42.63;100525.03;5055160;28;50071;-43
2022/11/25 00:18:16;;;;;;;;;3.67;1.67;;;;;20.07;42.55;100540.00;5056705;28;56398;-44
2022/11/25 00:20:41;;;;;;;;;3.33;2.00;;;;;20.06;42.81;100538.28;5056374;28;54180;-43
2022/11/25 00:23:06;;;;;;;;;2.00;2.00;;;;;20.07;43.02;100549.66;5056618;28;45637;-43
2022/11/25 00:25:32;;;;;;;;;2.00;2.00;;;;;20.06;43.09;100547.97;5056729;28;47088;-45
2022/11/25 00:27:57;;;;;;;;;2.00;2.00;;;;;20.06;43.11;100547.97;5056246;28;53742;-43
2022/11/25 00:30:22;;;;;;;;;4.00;3.00;;;;;20.05;42.94;100549.75;5056076;28;61700;-44
2022/11/25 00:32:47;;;;;;;;;2.00;2.00;;;;;20.03;42.92;100546.34;5058125;28;57803;-41
2022/11/25 00:35:13;;;;;;;;;2.00;2.00;;;;;20.03;43.01;100551.63;5059725;28;56674;-44
2022/11/25 00:37:38;;;;;;;;;2.00;1.75;;;;;20.03;42.54;100548.16;5060093;28;45263;-42
2022/11/25 00:40:04;;;;;;;;;2.00;2.00;;;;;20.03;43.31;100548.97;5060432;28;49232;-44
2022/11/25 00:45:13;;;;;;;;;3.25;2.00;;;;;19.94;43.06;100541.63;5060160;28;45828;-45
2022/11/25 00:47:39;;;;;;;;;1.25;1.25;;;;;20.00;42.88;100564.97;5060512;28;45284;-44
2022/11/25 00:50:04;;;;;;;;;4.75;3.00;;;;;20.00;42.80;100554.44;5059963;28;45206;-44
2022/11/25 00:52:35;;;;;;;;;2.00;2.00;;;;;20.00;43.06;100554.44;5059976;28;45199;-42
2022/11/25 00:55:01;;;;;;;;;2.50;2.50;;;;;19.99;43.25;100563.28;5063660;28;46183;-43
2022/11/25 00:57:26;;;;;;;;;3.00;2.00;;;;;19.92;43.04;100560.13;5074825;28;45676;-43
2022/11/25 00:59:51;;;;;;;;;2.00;2.00;;;;;19.98;42.92;100574.72;5066745;28;49311;-45
2022/11/25 01:02:17;;;;;;;;;3.25;2.00;;;;;19.97;43.15;100567.75;5065811;28;45307;-42
2022/11/25 01:04:43;;;;;;;;;2.25;2.00;;;;;19.97;43.34;100578.28;5078040;28;45180;-45
2022/11/25 01:07:09;;;;;;;;;1.50;1.00;;;;;19.95;42.70;100569.63;5084690;28;44736;-44
2022/11/25 01:09:34;;;;;;;;;1.75;1.75;;;;;19.91;42.99;100568.97;5082684;28;45335;-47
2022/11/25 01:12:00;;;;;;;;;2.00;1.00;;;;;19.95;43.32;100577.53;5083389;28;44916;-45
2022/11/25 01:14:25;;;;;;;;;2.75;2.00;;;;;19.94;42.91;100575.81;5082429;28;46174;-43
2022/11/25 01:16:51;;;;;;;;;2.00;1.00;;;;;19.95;43.31;100580.16;5075353;28;45282;-44
2022/11/25 01:19:18;;;;;;;;;1.00;1.00;;;;;19.94;43.12;100586.34;5075550;28;45199;-45
2022/11/25 01:21:43;;;;;;;;;5.00;2.50;;;;;19.92;42.97;100594.34;5073940;28;45487;-45
2022/11/25 01:24:12;;;;;;;;;1.25;1.25;;;;;19.92;43.05;100598.72;5069778;28;46189;-47
2022/11/25 01:26:37;;;;;;;;;3.75;2.00;;;;;19.86;42.96;100580.69;5065425;28;45216;-46
2022/11/25 01:29:05;;;;;;;;;2.00;2.00;;;;;19.91;43.16;100597.91;5063679;28;45240;-43
2022/11/25 01:31:33;;;;;;;;;2.00;2.00;;;;;19.91;42.79;100604.91;5065967;28;45434;-44
2022/11/25 01:34:05;;;;;;;;;1.75;1.00;;;;;19.85;42.88;100592.94;5062935;28;46412;-47
2022/11/25 01:36:31;;;;;;;;;3.75;2.00;;;;;19.88;43.11;100600.69;5062282;28;45683;-44
2022/11/25 01:38:58;;;;;;;;;1.25;1.25;;;;;19.89;43.40;100614.69;5069223;28;45268;-46
2022/11/25 01:41:26;;;;;;;;;3.00;2.00;;;;;19.87;43.48;100617.41;5072082;28;45421;-45
2022/11/25 01:44:14;;;;;;;;;1.25;1.25;;;;;19.88;43.52;100627.00;5077057;28;46285;-46
2022/11/25 01:46:48;;;;;;;;;1.75;1.75;;;;;19.87;43.22;100629.72;5068133;28;45789;-46
2022/11/25 01:49:23;;;;;;;;;1.50;1.50;;;;;19.87;43.16;100633.19;5064137;28;45298;-43
2022/11/25 01:52:01;;;;;;;;;2.25;1.00;;;;;19.86;43.44;100635.91;5078197;28;45234;-44
2022/11/25 01:54:30;;;;;;;;;5.00;3.00;;;;;19.85;43.50;100634.19;5084047;28;46697;-46
2022/11/25 01:57:07;;;;;;;;;2.25;1.25;;;;;19.84;43.00;100641.22;5081037;28;45210;-43
2022/11/25 01:59:38;;;;;;;;;3.00;1.50;;;;;19.84;43.69;100635.97;5071919;28;44682;-46
2022/11/25 02:02:04;;;;;;;;;1.00;1.00;;;;;19.77;43.54;100632.84;5065716;28;45440;-45
2022/11/25 02:04:33;;;;;;;;;2.25;2.00;;;;;19.84;43.38;100650.88;5060664;28;46058;-44
2022/11/25 02:07:06;;;;;;;;;1.25;1.25;;;;;19.84;43.17;100653.50;5059252;28;45332;-45
2022/11/25 02:09:35;;;;;;;;;1.75;1.00;;;;;19.76;43.25;100644.28;5059698;28;45355;-42
2022/11/25 02:12:01;;;;;;;;;3.25;2.00;;;;;19.83;43.17;100651.81;5059512;28;45327;-49
2022/11/25 02:14:26;;;;;;;;;2.75;1.75;;;;;19.81;43.34;100654.53;5059791;28;45363;-42
2022/11/25 02:16:52;;;;;;;;;1.75;1.75;;;;;19.74;43.08;100645.28;5067419;28;45312;-44
2022/11/25 02:19:46;;;;;;;;;1.50;1.50;;;;;19.81;43.63;100665.06;5081910;28;45410;-47
2022/11/25 02:22:23;;;;;;;;;2.25;2.25;;;;;19.81;43.56;100661.56;5073133;28;45430;-44
2022/11/25 02:24:56;;;;;;;;;4.25;2.00;;;;;19.81;43.24;100658.94;5060345;28;46195;-42
2022/11/25 02:27:21;;;;;;;;;1.00;1.00;;;;;19.80;43.17;100663.38;5074600;28;45016;-45
2022/11/25 02:29:48;;;;;;;;;2.00;2.00;;;;;19.78;43.44;100671.34;5080751;28;45116;-46
2022/11/25 02:32:13;;;;;;;;;2.00;1.25;;;;;19.73;43.30;100662.84;5079903;28;44837;-44
2022/11/25 02:34:46;;;;;;;;;3.50;1.50;;;;;19.78;43.40;100679.25;5059459;28;49583;-43
2022/11/25 02:37:13;;;;;;;;;0.00;0.00;;;;;19.79;43.57;100680.06;5058336;28;45794;-43
2022/11/25 02:39:39;;;;;;;;;1.00;1.00;;;;;19.78;42.94;100692.38;5058338;28;45462;-43
2022/11/25 02:42:05;;;;;;;;;1.00;1.00;;;;;19.78;43.65;100694.16;5058202;28;45550;-42
2022/11/25 02:44:31;;;;;;;;;3.25;1.00;;;;;19.77;43.07;100693.31;5057753;28;45347;-47
2022/11/25 02:46:56;;;;;;;;;2.50;1.75;;;;;19.70;43.35;100678.78;5058195;28;45474;-41
2022/11/25 02:49:21;;;;;;;;;1.25;1.00;;;;;19.72;43.49;100691.88;5058209;28;45296;-45
2022/11/25 02:51:47;;;;;;;;;3.00;1.00;;;;;19.76;43.40;100704.75;5065432;28;45305;-47
2022/11/25 02:54:14;;;;;;;;;1.75;1.00;;;;;19.76;43.34;100706.53;5071540;28;46516;-47
2022/11/25 02:56:40;;;;;;;;;1.00;1.00;;;;;19.75;43.23;100703.06;5080933;28;45169;-44
2022/11/25 02:59:06;;;;;;;;;2.50;1.00;;;;;19.74;43.36;100708.38;5068078;28;45318;-44
2022/11/25 03:01:33;;;;;;;;;1.50;1.00;;;;;19.74;43.03;100709.25;5058275;28;45535;-44
2022/11/25 03:03:59;;;;;;;;;1.25;0.75;;;;;19.74;43.61;100711.88;5057772;28;46858;-43
2022/11/25 03:06:25;;;;;;;;;2.00;1.50;;;;;19.68;43.44;100700.84;5057453;28;45256;-46
2022/11/25 03:08:50;;;;;;;;;1.00;1.00;;;;;19.74;43.63;100721.53;5057761;28;45352;-45
2022/11/25 03:11:15;;;;;;;;;0.00;0.00;;;;;19.73;42.99;100725.97;5057871;28;45401;-44
2022/11/25 03:13:41;;;;;;;;;2.00;1.00;;;;;19.71;43.57;100719.94;5055667;28;55093;-43
2022/11/25 03:16:07;;;;;;;;;1.00;1.00;;;;;19.73;43.20;100731.22;5057383;28;45389;-45
2022/11/25 03:18:33;;;;;;;;;2.50;1.00;;;;;19.72;43.08;100734.78;5057616;28;45435;-46
2022/11/25 03:20:58;;;;;;;;;2.75;1.50;;;;;19.71;43.32;100737.50;5057798;28;45604;-43
2022/11/25 03:23:24;;;;;;;;;1.00;1.00;;;;;19.72;43.63;100739.19;5057193;28;46291;-45
2022/11/25 03:25:50;;;;;;;;;2.25;2.00;;;;;19.71;43.58;100743.59;5057162;28;45200;-45
2022/11/25 03:28:15;;;;;;;;;2.75;1.75;;;;;19.70;43.16;100747.16;5057399;28;45170;-44
2022/11/25 03:30:41;;;;;;;;;0.25;0.00;;;;;19.70;43.41;100747.16;5057844;28;45215;-45
2022/11/25 03:33:07;;;;;;;;;2.75;1.00;;;;;19.66;43.41;100750.88;5062680;28;51761;-45
2022/11/25 03:35:32;;;;;;;;;1.00;1.00;;;;;19.65;43.46;100749.19;5073468;28;44709;-42
2022/11/25 03:37:57;;;;;;;;;1.50;1.50;;;;;19.70;42.95;100754.19;5070960;28;45462;-48
2022/11/25 03:40:23;;;;;;;;;2.25;1.00;;;;;19.64;43.39;100758.00;5081026;28;45282;-46
2022/11/25 03:42:48;;;;;;;;;1.00;1.00;;;;;19.69;43.63;100771.75;5058344;28;59174;-42
2022/11/25 03:45:14;;;;;;;;;1.00;1.00;;;;;19.65;43.46;100775.47;5057136;28;45355;-45
2022/11/25 03:47:41;;;;;;;;;1.00;1.00;;;;;19.69;43.70;100782.25;5056900;28;45408;-45
2022/11/25 03:50:07;;;;;;;;;1.00;1.00;;;;;19.68;43.22;100785.81;5057709;28;45513;-43
2022/11/25 03:52:33;;;;;;;;;3.00;1.00;;;;;19.61;43.07;100780.06;5057227;28;48404;-42
2022/11/25 03:54:58;;;;;;;;;1.00;1.00;;;;;19.68;42.97;100795.50;5057686;28;45301;-45
2022/11/25 03:57:23;;;;;;;;;2.00;1.25;;;;;19.61;43.13;100790.56;5056187;28;45256;-43
2022/11/25 03:59:48;;;;;;;;;3.00;0.25;;;;;19.65;43.72;100791.25;5057576;28;47630;-50
2022/11/25 04:02:14;;;;;;;;;1.50;0.25;;;;;19.66;43.68;100790.34;5072753;28;46286;-44
2022/11/25 04:04:39;;;;;;;;;1.00;1.00;;;;;19.66;43.66;100786.84;5080745;28;55214;-47
2022/11/25 04:07:05;;;;;;;;;4.00;1.00;;;;;19.66;43.06;100792.97;5081611;28;44788;-45
2022/11/25 04:09:30;;;;;;;;;3.25;2.00;;;;;19.59;43.61;100794.19;5074670;28;45376;-45
2022/11/25 04:14:39;;;;;;;;;0.25;0.25;;;;;19.59;43.16;100796.81;5073523;28;45715;-42
2022/11/25 04:17:05;;;;;;;;;1.00;1.00;;;;;19.63;43.41;100803.63;5069272;28;45355;-45
2022/11/25 04:19:30;;;;;;;;;2.25;1.00;;;;;19.63;43.13;100808.88;5063880;28;45241;-45
2022/11/25 04:21:58;;;;;;;;;2.00;1.00;;;;;19.64;43.39;100815.84;5061444;28;60973;-45
2022/11/25 04:24:24;;;;;;;;;1.00;1.00;;;;;19.66;43.72;100826.28;5062270;28;45330;-42
2022/11/25 04:26:49;;;;;;;;;3.00;1.00;;;;;19.63;43.26;100830.75;5062119;28;45335;-47
2022/11/25 04:29:15;;;;;;;;;1.00;1.00;;;;;19.63;43.36;100819.41;5060910;28;45849;-44
2022/11/25 04:31:40;;;;;;;;;1.00;1.00;;;;;19.67;43.27;100825.34;5058777;28;46061;-46
2022/11/25 04:34:05;;;;;;;;;1.50;1.50;;;;;19.68;43.37;100833.16;5059570;28;45272;-46
2022/11/25 04:36:31;;;;;;;;;1.75;1.00;;;;;19.71;43.36;100838.25;5072713;28;44783;-45
2022/11/25 04:38:56;;;;;;;;;0.50;0.50;;;;;19.74;43.28;100843.38;5069308;28;45429;-42
2022/11/25 04:41:21;;;;;;;;;1.50;1.50;;;;;19.77;43.33;100847.59;5064948;28;45396;-44
2022/11/25 04:43:47;;;;;;;;;1.00;1.00;;;;;19.76;43.46;100840.66;5059239;28;49684;-46
2022/11/25 04:46:20;;;;;;;;;1.00;1.00;;;;;19.83;43.69;100851.69;5073793;28;45315;-44
2022/11/25 04:48:45;;;;;;;;;1.75;0.00;;;;;19.84;43.54;100842.88;5079590;28;44886;-43
2022/11/25 04:51:10;;;;;;;;;1.50;1.00;;;;;19.93;43.45;100858.22;5083036;28;55665;-44
2022/11/25 04:53:36;;;;;;;;;1.00;1.00;;;;;19.97;43.13;100866.78;5064819;28;45247;-47
2022/11/25 04:56:01;;;;;;;;;1.25;1.25;;;;;19.99;43.41;100868.44;5058365;28;45302;-45
2022/11/25 05:01:10;;;;;;;;;4.00;2.00;;;;;20.02;43.61;100859.50;5056119;28;45502;-43
2022/11/25 05:03:35;;;;;;;;;1.25;1.25;;;;;20.08;42.85;100864.44;5056551;28;45410;-43
2022/11/25 05:06:08;;;;;;;;;1.00;1.00;;;;;20.12;42.83;100867.78;5055779;28;50422;-46
2022/11/25 05:08:34;;;;;;;;;1.00;1.00;;;;;20.15;43.41;100870.22;5056912;28;45311;-45
2022/11/25 05:10:59;;;;;;;;;3.00;1.00;;;;;20.16;43.22;100875.44;5055781;28;45435;-44
2022/11/25 05:13:25;;;;;;;;;1.50;1.00;;;;;20.20;43.10;100886.63;5055874;28;45290;-42
2022/11/25 05:15:50;;;;;;;;;1.00;1.00;;;;;20.21;42.97;100878.66;5056105;28;45379;-44
2022/11/25 05:18:16;;;;;;;;;1.00;1.00;;;;;20.25;42.68;100895.13;5056778;28;45620;-44
2022/11/25 05:20:41;;;;;;;;;1.00;0.00;;;;;20.26;43.15;100901.25;5066981;28;46942;-46
2022/11/25 05:23:06;;;;;;;;;2.00;1.00;;;;;20.29;43.20;100901.06;5067713;28;54905;-51
2022/11/25 05:25:32;;;;;;;;;3.00;1.00;;;;;20.30;42.95;100906.28;5076531;28;45236;-45
2022/11/25 05:27:57;;;;;;;;;0.00;0.00;;;;;20.27;42.64;100900.31;5079888;28;45335;-45
2022/11/25 05:30:22;;;;;;;;;1.00;1.00;;;;;20.35;42.50;100916.56;5058723;28;45578;-45
2022/11/25 05:32:48;;;;;;;;;0.00;0.00;;;;;20.36;42.82;100911.19;5059703;28;45238;-44
2022/11/25 05:35:13;;;;;;;;;1.00;1.00;;;;;20.37;42.61;100919.97;5058393;28;45695;-44
2022/11/25 05:37:38;;;;;;;;;1.00;1.00;;;;;20.32;43.02;100909.69;5058405;28;45204;-45
2022/11/25 05:40:04;;;;;;;;;1.00;0.00;;;;;20.36;42.95;100921.72;5059053;28;46469;-43
2022/11/25 05:42:30;;;;;;;;;0.00;0.00;;;;;20.38;42.88;100924.28;5058876;28;46056;-45
2022/11/25 05:44:55;;;;;;;;;1.00;1.00;;;;;20.39;42.92;100936.53;5058932;28;45296;-44
2022/11/25 05:47:21;;;;;;;;;0.50;0.50;;;;;20.39;42.93;100940.00;5059065;28;45217;-43
2022/11/25 05:49:46;;;;;;;;;1.25;1.00;;;;;20.38;42.86;100938.28;5058595;28;45229;-45
2022/11/25 05:52:11;;;;;;;;;1.50;1.00;;;;;20.39;42.76;100945.25;5058348;28;54154;-44
2022/11/25 05:54:37;;;;;;;;;3.25;0.25;;;;;20.37;42.43;100936.59;5059320;28;45295;-42
2022/11/25 05:57:02;;;;;;;;;0.00;0.00;;;;;20.39;42.85;100940.00;5058998;28;45548;-45
2022/11/25 05:59:28;;;;;;;;;2.00;1.00;;;;;20.39;42.34;100949.69;5058571;28;46164;-42
2022/11/25 06:01:53;;;;;;;;;3.00;1.00;;;;;20.41;42.44;100952.22;5059282;28;45456;-44
2022/11/25 06:04:21;;;;;;;;;1.00;1.00;;;;;20.37;42.52;100947.13;5062795;28;45417;-44
2022/11/25 06:06:46;;;;;;;;;2.00;0.00;;;;;20.39;42.59;100955.78;5062384;28;45406;-44
2022/11/25 06:09:12;;;;;;;;;1.75;1.75;;;;;20.33;42.93;100950.00;5075912;28;45605;-47
2022/11/25 06:11:37;;;;;;;;;1.00;1.00;;;;;20.38;42.70;100964.63;5086320;28;44649;-45
2022/11/25 06:14:02;;;;;;;;;1.75;0.50;;;;;20.38;42.66;100964.63;5080506;28;45402;-44
2022/11/25 06:16:28;;;;;;;;;4.00;2.00;;;;;20.38;42.66;100969.88;5066269;28;45165;-46
2022/11/25 06:18:53;;;;;;;;;2.00;1.00;;;;;20.37;42.81;100978.69;5060542;28;46062;-45
2022/11/25 06:21:19;;;;;;;;;1.00;1.00;;;;;20.38;42.29;100975.16;5058936;28;45269;-43
2022/11/25 06:23:45;;;;;;;;;3.75;0.50;;;;;20.37;42.63;100978.69;5058838;28;45395;-43
2022/11/25 06:26:21;;;;;;;;;0.50;0.50;;;;;20.38;42.66;100972.50;5059118;28;45417;-45
2022/11/25 06:28:49;;;;;;;;;1.00;1.00;;;;;20.36;42.65;100979.63;5060019;28;46013;-44
2022/11/25 06:31:20;;;;;;;;;1.00;1.00;;;;;20.35;42.55;100985.81;5056438;28;45450;-45
2022/11/25 06:33:47;;;;;;;;;2.25;2.00;;;;;20.34;42.54;100991.19;5058338;28;45294;-43
2022/11/25 06:36:16;;;;;;;;;1.00;1.00;;;;;20.34;42.45;100993.81;5059279;28;45772;-45
2022/11/25 06:38:46;;;;;;;;;1.00;1.00;;;;;20.33;42.26;100992.97;5070571;28;47039;-43
2022/11/25 06:41:12;;;;;;;;;3.25;1.00;;;;;20.31;42.34;101000.09;5078432;28;45175;-43
2022/11/25 06:43:37;;;;;;;;;2.25;1.00;;;;;20.32;42.42;101014.09;5062549;28;45398;-44
2022/11/25 06:46:12;;;;;;;;;2.00;1.00;;;;;20.30;42.59;101013.31;5072977;28;45623;-44
2022/11/25 06:48:37;;;;;;;;;1.00;0.00;;;;;20.30;42.54;101019.44;5072323;28;47314;-46
2022/11/25 06:51:06;;;;;;;;;2.25;1.00;;;;;20.31;42.29;101018.53;5058761;28;45556;-42
2022/11/25 06:53:32;;;;;;;;;1.00;1.00;;;;;20.29;42.52;101020.38;5059517;28;45334;-47
2022/11/25 06:56:03;;;;;;;;;1.00;1.00;;;;;20.30;42.70;101016.81;5063034;28;45408;-42
2022/11/25 06:58:29;;;;;;;;;0.00;0.00;;;;;20.28;42.31;101010.78;5063926;28;46251;-43
2022/11/25 07:01:04;;;;;;;;;2.50;1.50;;;;;20.29;42.28;101016.88;5063976;28;45898;-45
2022/11/25 07:03:29;;;;;;;;;4.00;2.00;;;;;20.28;42.86;101017.84;5063911;28;45972;-44
2022/11/25 07:05:56;;;;;;;;;1.25;1.00;;;;;20.24;42.75;101004.81;5063623;28;45450;-43
2022/11/25 07:08:23;;;;;;;;;3.00;1.00;;;;;20.27;43.05;101014.34;5063436;28;47046;-43
2022/11/25 07:10:48;;;;;;;;;0.75;0.75;;;;;20.25;42.44;101013.56;5063323;28;45337;-46
2022/11/25 07:13:14;;;;;;;;;1.75;1.00;;;;;20.26;42.46;101010.00;5064125;28;45275;-46
2022/11/25 07:15:39;;;;;;;;;2.67;1.00;;;;;20.26;42.66;101028.41;5059805;28;47051;-45
2022/11/25 07:18:04;;;;;;;;;1.00;1.00;;;;;20.20;42.75;101020.84;5068840;28;57713;-47
2022/11/25 07:20:31;;;;;;;;;5.00;1.75;;;;;20.18;42.69;101015.66;5076398;28;45327;-43
2022/11/25 07:22:57;;;;;;;;;3.00;2.00;;;;;20.23;42.33;101031.19;5067303;28;45280;-45
2022/11/25 07:25:22;;;;;;;;;2.00;2.00;;;;;20.17;42.35;101034.16;5074205;28;45234;-44
2022/11/25 07:27:47;;;;;;;;;1.00;1.00;;;;;20.21;42.54;101056.78;5063219;28;48735;-42
2022/11/25 07:30:13;;;;;;;;;3.00;2.00;;;;;20.21;42.93;101056.78;5060069;28;61502;-46
2022/11/25 07:32:38;;;;;;;;;1.50;1.00;;;;;20.14;42.52;101050.09;5057450;28;45350;-49
2022/11/25 07:35:04;;;;;;;;;3.50;2.00;;;;;20.13;42.59;101051.00;5057001;28;45617;-43
2022/11/25 07:37:29;;;;;;;;;0.25;0.25;;;;;20.20;42.80;101076.13;5056941;28;46578;-43
2022/11/25 07:39:54;;;;;;;;;0.75;0.75;;;;;20.14;42.67;101060.63;5057075;28;45390;-45
2022/11/25 07:42:20;;;;;;;;;1.50;0.25;;;;;20.17;42.69;101065.72;5055851;28;45299;-45
2022/11/25 07:44:45;;;;;;;;;0.50;0.00;;;;;20.16;42.45;101074.56;5057544;28;45375;-44
2022/11/25 07:47:10;;;;;;;;;3.33;2.00;;;;;20.17;42.35;101082.41;5056388;28;58472;-47
2022/11/25 07:49:36;;;;;;;;;3.00;1.00;;;;;20.17;42.38;101076.25;5057102;28;45288;-44
2022/11/25 07:52:03;;;;;;;;;3.75;1.75;;;;;20.14;42.74;101076.41;5057649;28;45425;-43
2022/11/25 07:54:29;;;;;;;;;1.75;1.75;;;;;20.07;42.94;101079.34;5072385;28;45520;-44
2022/11/25 07:56:55;;;;;;;;;1.00;1.00;;;;;20.13;42.93;101095.75;5066799;28;46193;-45
2022/11/25 07:59:22;;;;;;;;;1.50;1.50;;;;;20.14;42.67;101102.72;5059277;28;45323;-45
2022/11/25 08:01:49;;;;;;;;;2.75;1.25;;;;;20.13;42.34;101114.16;5055711;28;45432;-46
2022/11/25 08:04:15;;;;;;;;;2.00;2.00;;;;;20.13;43.00;101119.44;5058940;28;45537;-43
2022/11/25 08:06:43;;;;;;;;;2.25;1.00;;;;;20.11;42.70;101123.94;5060580;28;45431;-46
2022/11/25 08:09:11;;;;;;;;;1.25;1.25;;;;;20.10;42.76;101138.88;5078095;28;45336;-43
2022/11/25 08:11:37;;;;;;;;;1.00;1.00;;;;;20.08;42.95;101148.59;5078748;28;45426;-44
2022/11/25 08:14:03;;;;;;;;;2.75;2.00;;;;;20.08;43.02;101157.38;5063457;28;45548;-42
2022/11/25 08:16:32;;;;;;;;;0.00;0.00;;;;;20.08;42.91;101165.25;5057525;28;46343;-44
2022/11/25 08:19:00;;;;;;;;;3.00;1.00;;;;;20.07;42.66;101168.81;5056922;28;45888;-43
2022/11/25 08:21:26;;;;;;;;;2.00;2.00;;;;;20.08;42.46;101172.28;5056654;28;45224;-43
2022/11/25 08:23:51;;;;;;;;;2.50;2.00;;;;;20.05;42.84;101172.47;5056777;28;45443;-47
2022/11/25 08:26:20;;;;;;;;;2.50;2.00;;;;;20.06;42.49;101172.38;5056655;28;46896;-45
2022/11/25 08:28:46;;;;;;;;;1.00;1.00;;;;;20.04;42.95;101171.59;5059064;28;45369;-44
2022/11/25 08:31:15;;;;;;;;;1.75;1.75;;;;;20.04;42.65;101171.59;5059632;28;45425;-45
2022/11/25 08:33:41;;;;;;;;;1.00;1.00;;;;;20.05;42.50;101172.47;5056952;28;45219;-42
2022/11/25 13:58:28;;;;;;;;;3.25;3.00;;;;;20.32;42.21;101520.38;5258061;22;45592;-45
2022/11/25 14:00:59;;;;;;;;;1.25;1.00;;;;;20.33;42.59;101530.00;5038831;28;45258;-47
2022/11/25 14:03:24;;;;;;;;;4.75;2.00;;;;;20.34;42.70;101531.69;5038876;28;45200;-53
2022/11/25 14:06:04;;;;;;;;;7.75;3.00;;;;;20.34;42.23;101531.69;5038679;28;45379;-50
2022/11/25 14:09:01;;;;;;;;;2.00;2.00;;;;;20.34;42.65;101538.72;5038101;28;46398;-50
2022/11/25 14:12:00;;;;;;;;;2.25;1.75;;;;;20.34;42.34;101547.47;5038603;28;45320;-46
2022/11/25 14:15:01;;;;;;;;;1.75;1.25;;;;;20.34;42.62;101554.53;5038586;28;45420;-43
2022/11/25 14:17:51;;;;;;;;;3.00;2.00;;;;;20.34;42.45;101552.72;4967138;28;45387;-46
2022/11/25 14:20:35;;;;;;;;;4.00;2.75;;;;;20.33;42.61;101553.69;5020188;28;47369;-47
2022/11/25 14:23:15;;;;;;;;;1.25;1.00;;;;;20.32;42.42;101565.13;5038144;28;45269;-49
2022/11/25 14:25:48;;;;;;;;;3.25;1.50;;;;;20.31;42.76;101568.69;5038104;28;45330;-51
2022/11/25 14:28:28;;;;;;;;;2.00;2.00;;;;;20.31;42.36;101573.94;5038133;28;45496;-50
2022/11/25 14:30:59;;;;;;;;;3.50;2.00;;;;;20.22;42.54;101569.09;5037885;28;45987;-52
2022/11/25 14:33:51;;;;;;;;;2.25;1.00;;;;;20.32;42.82;101590.59;5038268;28;45423;-49
2022/11/25 14:36:24;;;;;;;;;3.00;1.00;;;;;20.25;42.25;101589.97;5037981;28;45300;-50
2022/11/25 14:38:58;;;;;;;;;1.00;1.00;;;;;20.31;42.76;101592.38;5020353;28;45275;-46
2022/11/25 14:41:34;;;;;;;;;3.75;1.00;;;;;20.31;42.61;101595.00;5037506;28;47209;-50
2022/11/25 14:44:05;;;;;;;;;4.00;2.00;;;;;20.31;42.55;101600.28;5038148;28;45740;-51
2022/11/25 14:46:31;;;;;;;;;1.00;1.00;;;;;20.31;42.84;101600.28;5037908;28;45427;-43
2022/11/25 14:49:01;;;;;;;;;1.00;1.00;;;;;20.31;42.87;101608.16;5038140;28;45343;-49
2022/11/25 14:51:35;;;;;;;;;2.00;1.00;;;;;20.30;42.41;101609.09;5037394;28;46287;-48
2022/11/25 14:54:01;;;;;;;;;1.50;1.50;;;;;20.30;42.71;101613.47;5037831;28;46555;-41
2022/11/25 14:56:33;;;;;;;;;2.50;2.00;;;;;20.29;42.36;101615.28;5038104;28;45364;-41
2022/11/25 14:58:59;;;;;;;;;2.25;1.00;;;;;20.29;42.25;101619.66;5038258;28;45483;-40
2022/11/25 15:01:24;;;;;;;;;2.50;1.50;;;;;20.29;42.80;101625.81;5037468;28;46472;-44
2022/11/25 15:04:00;;;;;;;;;1.00;1.00;;;;;20.28;42.76;101636.41;5037434;28;45202;-44
2022/11/25 15:06:42;;;;;;;;;1.00;1.00;;;;;20.28;42.79;101639.03;5037440;28;45225;-44
2022/11/25 15:09:35;;;;;;;;;2.25;2.00;;;;;20.27;42.96;101635.53;5037415;28;45553;-43
2022/11/25 15:12:03;;;;;;;;;1.25;1.25;;;;;20.27;42.88;101645.22;5027913;28;45342;-42
2022/11/25 15:14:36;;;;;;;;;2.50;2.00;;;;;20.18;42.95;101639.41;5037668;28;45319;-44
2022/11/25 15:17:19;;;;;;;;;2.00;2.00;;;;;20.26;42.71;101660.13;5019790;28;45349;-45
2022/11/25 15:19:47;;;;;;;;;1.75;1.25;;;;;20.24;42.73;101668.13;5019520;28;45407;-41
2022/11/25 15:22:18;;;;;;;;;2.00;1.50;;;;;20.17;42.48;101655.25;5037109;28;46301;-43
2022/11/25 15:24:45;;;;;;;;;1.00;1.00;;;;;20.15;42.67;101662.34;5037140;28;45371;-43
2022/11/25 15:27:27;;;;;;;;;1.75;1.00;;;;;20.24;42.85;101683.03;5037187;28;45325;-42
2022/11/25 15:29:54;;;;;;;;;1.00;1.00;;;;;20.24;42.39;101690.94;5037410;28;45316;-43
2022/11/25 15:32:32;;;;;;;;;2.00;1.25;;;;;20.23;42.60;101697.97;5036970;28;47419;-42
2022/11/25 15:35:00;;;;;;;;;2.25;2.00;;;;;20.14;42.58;101676.44;5037020;28;45844;-41
2022/11/25 15:37:29;;;;;;;;;2.00;1.00;;;;;20.22;42.83;101700.69;5037174;28;45233;-43
2022/11/25 15:40:41;;;;;;;;;3.00;2.00;;;;;20.21;42.47;101704.25;5019187;28;45669;-41
2022/11/25 15:43:25;;;;;;;;;1.00;1.00;;;;;20.19;42.65;101706.06;5032713;28;45595;-44
2022/11/25 15:45:56;;;;;;;;;2.00;2.00;;;;;20.21;43.10;101714.78;5036890;28;45821;-44
2022/11/25 15:48:33;;;;;;;;;1.00;1.00;;;;;20.20;42.82;101713.06;5036756;28;45408;-41
2022/11/25 15:51:04;;;;;;;;;1.25;1.25;;;;;20.10;42.60;101699.38;5037100;28;45538;-41
2022/11/25 15:53:35;;;;;;;;;1.00;1.00;;;;;20.19;42.51;101727.13;5036733;28;45676;-41
2022/11/25 15:56:04;;;;;;;;;1.25;1.00;;;;;20.11;42.54;101718.69;5036919;28;45221;-43
2022/11/25 15:58:30;;;;;;;;;1.00;1.00;;;;;20.19;43.07;101732.38;5036875;28;45934;-41
2022/11/25 16:01:06;;;;;;;;;4.00;1.25;;;;;20.10;42.93;101725.72;5036992;28;45400;-46
2022/11/25 16:03:34;;;;;;;;;1.00;0.75;;;;;20.18;42.79;101741.19;5035996;28;45344;-41
2022/11/25 16:06:00;;;;;;;;;1.25;1.25;;;;;20.18;42.98;101747.31;5036464;28;45248;-43
2022/11/25 16:08:29;;;;;;;;;3.00;1.00;;;;;20.18;42.76;101746.47;5036504;28;45224;-46
2022/11/25 16:11:09;;;;;;;;;3.00;1.00;;;;;20.17;43.04;101755.28;5036590;28;45311;-44
2022/11/25 16:13:36;;;;;;;;;0.75;0.75;;;;;20.17;42.71;101768.44;5036646;28;45440;-41
2022/11/25 16:16:15;;;;;;;;;4.00;1.00;;;;;20.08;43.01;101749.47;5036704;28;45764;-47
2022/11/25 16:19:08;;;;;;;;;2.00;2.00;;;;;20.16;43.09;101770.22;5035552;28;45777;-45
2022/11/25 16:21:39;;;;;;;;;1.50;1.00;;;;;20.15;42.60;101776.41;5036687;28;45657;-43
2022/11/25 16:24:04;;;;;;;;;2.00;1.50;;;;;20.16;42.63;101771.97;5036447;28;45263;-44
2022/11/25 16:26:49;;;;;;;;;3.33;2.00;;;;;20.15;42.78;101779.03;5036157;28;45237;-45
2022/11/25 16:29:17;;;;;;;;;3.25;1.00;;;;;20.14;42.66;101784.34;5035992;28;45383;-42
2022/11/25 16:31:43;;;;;;;;;1.75;1.00;;;;;20.12;43.09;101786.19;5036177;28;45340;-45
2022/11/25 16:34:13;;;;;;;;;2.00;2.00;;;;;20.14;42.51;101786.97;5035894;28;46703;-43
2022/11/25 16:36:39;;;;;;;;;2.50;1.00;;;;;20.12;42.67;101792.31;5035812;28;45759;-48
2022/11/25 16:39:04;;;;;;;;;3.00;1.50;;;;;20.13;42.63;101799.28;5036526;28;45365;-47
2022/11/25 16:41:30;;;;;;;;;3.00;2.00;;;;;20.12;42.94;101805.47;5036390;28;45192;-44
2022/11/25 16:43:57;;;;;;;;;2.00;0.25;;;;;20.03;43.12;101795.28;5035900;28;46049;-45
2022/11/25 16:46:23;;;;;;;;;1.50;1.50;;;;;20.11;42.80;101809.00;5035926;28;45895;-45
2022/11/25 16:48:48;;;;;;;;;3.50;1.00;;;;;20.11;42.66;101808.16;5036046;28;45410;-46
2022/11/25 16:51:19;;;;;;;;;2.00;2.00;;;;;20.12;43.12;101809.88;5036165;28;45551;-48
2022/11/25 16:53:45;;;;;;;;;2.00;1.00;;;;;20.01;43.11;101797.97;5035645;28;46788;-48
2022/11/25 16:56:14;;;;;;;;;1.00;1.00;;;;;20.10;42.90;101811.72;5035781;28;45382;-52
2022/11/25 16:58:41;;;;;;;;;3.25;2.00;;;;;20.03;42.89;101801.41;5035773;28;45463;-47
2022/11/25 17:01:12;;;;;;;;;3.25;1.00;;;;;20.10;43.17;101816.97;5036303;28;45669;-44